createdAt,value
2023-03-27T00:01:11.890Z,99.90
2023-03-27T00:03:42.650Z,99.90
2023-03-27T00:06:12.156Z,99.90
2023-03-27T00:08:39.106Z,99.90
2023-03-27T00:11:07.887Z,99.90
2023-03-27T00:13:35.239Z,99.90
2023-03-27T00:16:02.872Z,99.90
2023-03-27T00:18:33.651Z,99.90
2023-03-27T00:21:03.465Z,99.90
2023-03-27T00:23:31.599Z,99.90
2023-03-27T00:25:59.039Z,99.90
2023-03-27T00:28:28.587Z,99.90
2023-03-27T00:30:58.365Z,99.90
2023-03-27T00:33:26.064Z,99.90
2023-03-27T00:35:55.625Z,99.90
2023-03-27T00:38:24.834Z,99.90
2023-03-27T00:40:54.458Z,99.90
2023-03-27T00:43:33.808Z,99.90
2023-03-27T00:46:02.870Z,99.90
2023-03-27T00:48:32.718Z,99.90
2023-03-27T00:50:59.545Z,99.90
2023-03-27T00:53:29.297Z,99.90
2023-03-27T00:56:01.178Z,99.90
2023-03-27T01:01:00.345Z,99.90
2023-03-27T01:03:32.275Z,99.90
2023-03-27T01:06:01.942Z,99.90
2023-03-27T01:08:31.975Z,99.90
2023-03-27T01:11:01.554Z,99.90
2023-03-27T01:14:03.310Z,99.90
2023-03-27T01:17:08.379Z,99.90
2023-03-27T01:19:55.922Z,99.90
2023-03-27T01:22:56.118Z,99.90
2023-03-27T01:25:25.779Z,99.90
2023-03-27T01:28:02.737Z,99.90
2023-03-27T01:30:36.400Z,99.90
2023-03-27T01:33:27.212Z,99.90
2023-03-27T01:36:04.219Z,99.90
2023-03-27T01:38:46.009Z,99.90
2023-03-27T01:41:25.118Z,99.90
2023-03-27T01:43:57.094Z,99.90
2023-03-27T01:46:34.616Z,99.90
2023-03-27T01:49:23.535Z,99.90
2023-03-27T01:51:59.715Z,99.90
2023-03-27T01:54:31.605Z,99.90
2023-03-27T01:57:04.617Z,99.90
2023-03-27T01:59:35.886Z,99.90
2023-03-27T02:02:23.701Z,99.90
2023-03-27T02:04:57.143Z,99.90
2023-03-27T02:07:37.385Z,99.90
2023-03-27T02:10:08.263Z,99.90
2023-03-27T02:12:41.809Z,99.90
2023-03-27T02:15:23.339Z,99.90
2023-03-27T02:18:05.392Z,99.90
2023-03-27T02:20:37.678Z,99.90
2023-03-27T02:23:05.401Z,99.90
2023-03-27T02:25:34.778Z,99.90
2023-03-27T02:28:29.718Z,99.90
2023-03-27T02:31:32.363Z,99.90
2023-03-27T02:34:38.526Z,99.90
2023-03-27T02:37:16.305Z,99.90
2023-03-27T02:40:01.999Z,99.90
2023-03-27T02:42:54.234Z,99.90
2023-03-27T02:45:44.331Z,99.90
2023-03-27T02:48:34.119Z,99.90
2023-03-27T02:51:08.967Z,99.90
2023-03-27T02:53:43.105Z,99.90
2023-03-27T02:56:16.860Z,99.90
2023-03-27T02:58:50.524Z,99.90
2023-03-27T03:01:19.405Z,99.90
2023-03-27T03:03:53.700Z,99.90
2023-03-27T03:06:21.631Z,99.90
2023-03-27T03:08:49.242Z,99.90
2023-03-27T03:11:15.997Z,99.90
2023-03-27T03:13:45.270Z,99.90
2023-03-27T03:16:12.088Z,99.90
2023-03-27T03:18:38.879Z,99.90
2023-03-27T03:21:08.526Z,99.90
2023-03-27T03:23:35.202Z,99.90
2023-03-27T03:26:05.042Z,99.90
2023-03-27T03:28:31.914Z,99.90
2023-03-27T03:30:59.112Z,99.90
2023-03-27T03:33:27.966Z,99.90
2023-03-27T03:35:54.900Z,99.90
2023-03-27T03:38:26.485Z,99.90
2023-03-27T03:40:56.979Z,99.90
2023-03-27T03:43:28.530Z,99.90
2023-03-27T03:45:56.107Z,99.90
2023-03-27T03:48:23.732Z,99.90
2023-03-27T03:50:52.800Z,99.90
2023-03-27T03:53:21.408Z,99.90
2023-03-27T03:55:55.198Z,99.90
2023-03-27T03:58:34.198Z,99.90
2023-03-27T04:01:04.286Z,99.90
2023-03-27T04:03:36.367Z,99.90
2023-03-27T04:06:05.688Z,99.90
2023-03-27T04:08:34.028Z,99.90
2023-03-27T04:11:00.888Z,99.90
2023-03-27T04:13:27.613Z,99.90
2023-03-27T04:15:55.431Z,99.90
2023-03-27T04:18:32.403Z,99.90
2023-03-27T04:20:59.623Z,99.90
2023-03-27T04:23:30.299Z,99.90
2023-03-27T04:26:00.982Z,99.90
2023-03-27T04:28:30.369Z,99.90
2023-03-27T04:30:58.296Z,99.90
2023-03-27T04:33:30.713Z,99.90
2023-03-27T04:36:05.609Z,99.90
2023-03-27T04:38:39.158Z,99.90
2023-03-27T04:41:08.659Z,99.90
2023-03-27T04:43:41.737Z,99.90
2023-03-27T04:46:08.963Z,99.90
2023-03-27T04:48:39.122Z,99.90
2023-03-27T04:51:06.900Z,99.90
2023-03-27T04:53:37.774Z,99.90
2023-03-27T04:56:08.250Z,99.90
2023-03-27T04:58:37.323Z,99.90
2023-03-27T05:01:05.592Z,99.90
2023-03-27T05:03:34.622Z,99.90
2023-03-27T05:06:03.921Z,99.90
2023-03-27T05:08:32.999Z,99.90
2023-03-27T05:10:59.721Z,99.90
2023-03-27T05:13:26.439Z,99.90
2023-03-27T05:15:55.335Z,99.90
2023-03-27T05:18:21.992Z,99.90
2023-03-27T05:20:53.316Z,99.90
2023-03-27T05:23:20.005Z,99.90
2023-03-27T05:26:00.671Z,99.90
2023-03-27T05:28:29.107Z,99.90
2023-03-27T05:30:57.140Z,99.90
2023-03-27T05:33:24.047Z,99.90
2023-03-27T05:35:52.829Z,99.90
2023-03-27T05:38:20.052Z,99.90
2023-03-27T05:40:49.018Z,99.90
2023-03-27T05:43:15.793Z,99.90
2023-03-27T05:45:42.583Z,99.90
2023-03-27T05:48:09.855Z,99.90
2023-03-27T05:50:37.139Z,99.90
2023-03-27T05:53:07.979Z,99.90
2023-03-27T05:55:34.882Z,99.90
2023-03-27T05:58:05.985Z,99.90
2023-03-27T06:00:34.243Z,99.90
2023-03-27T06:03:03.210Z,99.90
2023-03-27T06:05:30.222Z,99.90
2023-03-27T06:08:00.157Z,99.90
2023-03-27T06:10:30.834Z,99.90
2023-03-27T06:13:06.392Z,99.90
2023-03-27T06:15:33.665Z,99.90
2023-03-27T06:18:02.880Z,99.90
2023-03-27T06:20:29.878Z,99.90
2023-03-27T06:23:01.661Z,99.90
2023-03-27T06:25:32.165Z,99.90
2023-03-27T06:27:59.315Z,99.90
2023-03-27T06:30:27.429Z,99.90
2023-03-27T06:32:59.040Z,99.90
2023-03-27T06:35:31.877Z,99.90
2023-03-27T06:37:59.932Z,99.90
2023-03-27T06:40:28.784Z,99.90
2023-03-27T06:42:59.444Z,99.90
2023-03-27T06:45:31.335Z,99.90
2023-03-27T06:48:12.993Z,99.90
2023-03-27T06:50:45.201Z,99.90
2023-03-27T06:53:25.902Z,99.90
2023-03-27T06:55:54.984Z,99.90
2023-03-27T06:58:22.176Z,99.90
2023-03-27T07:00:50.367Z,99.90
2023-03-27T07:03:19.112Z,99.90
2023-03-27T07:05:46.004Z,99.90
2023-03-27T07:08:23.303Z,99.90
2023-03-27T07:13:26.540Z,99.90
2023-03-27T07:15:53.636Z,99.90
2023-03-27T07:18:22.478Z,99.90
2023-03-27T07:20:54.195Z,99.90
2023-03-27T07:23:21.009Z,99.90
2023-03-27T07:25:49.955Z,99.90
2023-03-27T07:28:19.605Z,99.90
2023-03-27T07:30:46.657Z,99.90
2023-03-27T07:33:15.843Z,99.90
2023-03-27T07:35:47.921Z,99.90
2023-03-27T07:38:16.006Z,99.90
2023-03-27T07:40:44.496Z,99.90
2023-03-27T07:43:14.192Z,99.90
2023-03-27T07:45:41.580Z,99.90
2023-03-27T07:48:18.667Z,99.90
2023-03-27T07:50:46.356Z,99.90
2023-03-27T07:53:32.663Z,99.90
2023-03-27T07:56:00.310Z,99.90
2023-03-27T07:58:27.286Z,99.90
2023-03-27T08:00:54.403Z,99.90
2023-03-27T08:03:22.161Z,99.90
2023-03-27T08:05:57.661Z,99.90
2023-03-27T08:08:28.292Z,99.90
2023-03-27T08:10:56.974Z,99.90
2023-03-27T08:13:26.900Z,99.90
2023-03-27T08:16:06.718Z,99.90
2023-03-27T08:18:33.939Z,99.90
2023-03-27T08:21:03.104Z,99.90
2023-03-27T08:23:31.172Z,99.90
2023-03-27T08:26:00.629Z,99.90
2023-03-27T08:28:28.888Z,99.90
2023-03-27T08:30:56.094Z,99.90
2023-03-27T08:33:30.033Z,99.90
2023-03-27T08:35:57.482Z,99.90
2023-03-27T08:38:26.965Z,99.90
2023-03-27T08:40:58.863Z,99.90
2023-03-27T08:43:36.249Z,99.90
2023-03-27T08:46:32.649Z,99.90
2023-03-27T08:49:05.052Z,99.90
2023-03-27T08:51:47.245Z,99.90
2023-03-27T08:54:18.991Z,99.90
2023-03-27T08:56:46.599Z,99.90
2023-03-27T08:59:19.659Z,99.90
2023-03-27T09:01:56.525Z,99.90
2023-03-27T09:04:48.835Z,99.90
2023-03-27T09:07:28.657Z,99.90
2023-03-27T09:10:22.698Z,99.90
2023-03-27T09:13:00.923Z,99.90
2023-03-27T09:15:31.800Z,99.90
2023-03-27T09:18:11.239Z,99.90
2023-03-27T09:20:50.923Z,99.90
2023-03-27T09:23:21.775Z,99.90
2023-03-27T09:25:55.936Z,99.90
2023-03-27T09:28:30.349Z,99.90
2023-03-27T09:30:57.706Z,99.90
2023-03-27T09:33:25.574Z,99.90
2023-03-27T09:35:52.361Z,99.90
2023-03-27T09:38:28.251Z,99.90
2023-03-27T09:41:02.586Z,99.90
2023-03-27T09:43:35.544Z,99.90
2023-03-27T09:46:06.311Z,99.90
2023-03-27T09:48:40.438Z,99.90
2023-03-27T09:51:37.736Z,99.90
2023-03-27T09:54:05.180Z,99.90
2023-03-27T09:56:39.930Z,99.90
2023-03-27T09:59:20.229Z,99.90
2023-03-27T10:01:50.873Z,99.90
2023-03-27T10:04:23.010Z,99.90
2023-03-27T10:07:01.610Z,99.90
2023-03-27T10:09:35.021Z,99.90
2023-03-27T10:12:07.916Z,99.90
2023-03-27T10:14:39.469Z,99.90
2023-03-27T10:17:06.565Z,99.90
2023-03-27T10:19:39.487Z,99.90
2023-03-27T10:22:23.230Z,99.90
2023-03-27T10:24:51.909Z,99.90
2023-03-27T10:27:43.224Z,99.90
2023-03-27T10:30:27.321Z,99.90
2023-03-27T10:32:54.110Z,99.90
2023-03-27T10:35:26.994Z,99.90
2023-03-27T10:37:55.223Z,99.90
2023-03-27T10:40:26.046Z,99.90
2023-03-27T10:42:56.792Z,99.90
2023-03-27T10:45:24.317Z,99.90
2023-03-27T10:47:58.991Z,99.90
2023-03-27T10:50:33.848Z,99.90
2023-03-27T10:53:03.681Z,99.90
2023-03-27T10:55:54.980Z,99.90
2023-03-27T10:58:38.112Z,99.90
2023-03-27T11:01:18.032Z,99.90
2023-03-27T11:03:57.897Z,99.90
2023-03-27T11:06:31.144Z,99.90
2023-03-27T11:09:05.879Z,99.90
2023-03-27T11:11:35.394Z,99.90
2023-03-27T11:14:07.115Z,99.90
2023-03-27T11:16:43.274Z,99.90
2023-03-27T11:19:10.032Z,99.90
2023-03-27T11:21:40.590Z,99.90
2023-03-27T11:24:33.700Z,99.90
2023-03-27T11:27:14.459Z,99.90
2023-03-27T11:30:00.610Z,99.90
2023-03-27T11:32:52.912Z,99.90
2023-03-27T11:35:24.730Z,99.90
2023-03-27T11:37:57.723Z,99.90
2023-03-27T11:40:35.781Z,99.90
2023-03-27T11:43:03.057Z,99.90
2023-03-27T11:45:48.043Z,99.90
2023-03-27T11:48:42.694Z,99.90
2023-03-27T11:51:20.608Z,99.90
2023-03-27T11:54:26.193Z,99.90
2023-03-27T11:56:55.184Z,99.90
2023-03-27T11:59:59.569Z,99.90
2023-03-27T12:02:58.417Z,99.90
2023-03-27T12:05:50.919Z,99.90
2023-03-27T12:08:24.785Z,99.90
2023-03-27T12:10:54.550Z,99.90
2023-03-27T12:13:42.861Z,99.90
2023-03-27T12:16:24.054Z,99.90
2023-03-27T12:19:28.376Z,99.90
2023-03-27T12:22:29.137Z,99.90
2023-03-27T12:25:02.107Z,99.90
2023-03-27T12:27:37.680Z,99.90
2023-03-27T12:30:04.914Z,99.90
2023-03-27T12:33:05.325Z,99.90
2023-03-27T12:35:39.371Z,99.90
2023-03-27T12:38:31.264Z,99.90
2023-03-27T12:41:03.944Z,99.90
2023-03-27T12:43:39.415Z,99.90
2023-03-27T12:46:28.297Z,99.90
2023-03-27T12:49:05.317Z,99.90
2023-03-27T12:52:04.498Z,99.90
2023-03-27T12:54:34.142Z,99.90
2023-03-27T12:57:22.351Z,99.90
2023-03-27T12:59:49.174Z,99.90
2023-03-27T13:02:16.102Z,99.90
2023-03-27T13:05:08.622Z,99.90
2023-03-27T13:08:07.175Z,99.90
2023-03-27T13:10:58.045Z,99.90
2023-03-27T13:13:49.158Z,99.90
2023-03-27T13:16:34.554Z,99.90
2023-03-27T13:19:19.786Z,99.90
2023-03-27T13:22:08.207Z,99.90
2023-03-27T13:24:41.045Z,99.90
2023-03-27T13:27:29.301Z,99.90
2023-03-27T13:29:56.826Z,99.90
2023-03-27T13:32:30.830Z,99.90
2023-03-27T13:35:23.326Z,99.90
2023-03-27T13:37:50.108Z,99.90
2023-03-27T13:40:24.411Z,99.90
2023-03-27T13:43:14.114Z,99.90
2023-03-27T13:45:55.209Z,99.90
2023-03-27T13:48:50.205Z,99.90
2023-03-27T13:51:33.529Z,99.90
2023-03-27T13:54:41.836Z,99.90
2023-03-27T13:57:48.334Z,99.90
2023-03-27T14:00:35.550Z,99.90
2023-03-27T14:03:21.551Z,99.90
2023-03-27T14:06:01.969Z,99.90
2023-03-27T14:08:39.518Z,99.90
2023-03-27T14:11:29.876Z,99.90
2023-03-27T14:14:33.479Z,99.90
2023-03-27T14:17:18.800Z,99.90
2023-03-27T14:20:13.160Z,99.90
2023-03-27T14:22:48.247Z,99.90
2023-03-27T14:25:19.788Z,99.90
2023-03-27T14:27:56.443Z,99.90
2023-03-27T14:30:29.083Z,99.90
2023-03-27T14:32:57.592Z,99.90
2023-03-27T14:38:05.215Z,99.90
2023-03-27T14:40:35.246Z,99.90
2023-03-27T14:43:02.797Z,99.90
2023-03-27T14:45:35.697Z,99.90
2023-03-27T14:48:04.850Z,99.90
2023-03-27T14:50:38.761Z,99.90
2023-03-27T14:53:13.368Z,99.90
2023-03-27T14:55:42.577Z,99.40
2023-03-27T14:58:19.294Z,99.50
2023-03-27T15:00:52.677Z,98.30
2023-03-27T15:03:23.801Z,97.60
2023-03-27T15:05:54.394Z,97.30
2023-03-27T15:15:53.865Z,92.80
2023-03-27T15:18:28.133Z,93.00
2023-03-27T15:23:37.326Z,92.30
2023-03-27T15:26:24.276Z,95.30
2023-03-27T15:31:43.346Z,99.90
2023-03-27T15:34:24.150Z,99.90
2023-03-27T15:37:01.954Z,99.90
2023-03-27T15:39:32.333Z,99.90
2023-03-27T15:42:12.355Z,99.90
2023-03-27T15:50:11.560Z,99.90
2023-03-27T15:55:29.837Z,99.90
2023-03-27T16:00:28.837Z,99.90
2023-03-27T16:02:55.954Z,99.90
2023-03-27T16:18:27.809Z,99.90
2023-03-27T16:21:06.760Z,99.90
2023-03-27T16:23:35.851Z,99.90
2023-03-27T16:26:10.586Z,99.90
2023-03-27T16:28:37.350Z,99.90
2023-03-27T16:31:15.969Z,99.90
2023-03-27T16:33:45.072Z,99.90
2023-03-27T16:36:32.479Z,99.90
2023-03-27T16:38:59.196Z,99.90
2023-03-27T16:41:25.955Z,99.90
2023-03-27T16:43:54.850Z,99.90
2023-03-27T16:46:26.185Z,99.90
2023-03-27T16:48:54.476Z,99.90
2023-03-27T16:51:26.253Z,99.90
2023-03-27T16:53:53.119Z,99.90
2023-03-27T16:56:22.360Z,99.90
2023-03-27T16:58:49.133Z,99.90
2023-03-27T17:01:16.164Z,99.90
2023-03-27T17:03:43.091Z,99.90
2023-03-27T17:06:12.476Z,99.90
2023-03-27T17:08:39.332Z,99.90
2023-03-27T17:11:11.142Z,99.90
2023-03-27T17:13:41.565Z,99.90
2023-03-27T17:16:12.583Z,99.90
2023-03-27T17:18:39.371Z,99.90
2023-03-27T17:21:06.394Z,99.90
2023-03-27T17:23:37.969Z,99.90
2023-03-27T17:26:09.099Z,99.90
2023-03-27T17:28:37.703Z,99.90
2023-03-27T17:31:05.517Z,99.90
2023-03-27T17:33:33.356Z,99.90
2023-03-27T17:36:00.615Z,99.90
2023-03-27T17:38:27.633Z,99.90
2023-03-27T17:40:56.588Z,99.90
2023-03-27T17:43:23.262Z,99.90
2023-03-27T17:45:51.056Z,99.90
2023-03-27T17:48:17.863Z,99.90
2023-03-27T17:53:26.609Z,99.90
2023-03-27T17:55:53.596Z,99.90
2023-03-27T17:58:22.046Z,99.90
2023-03-27T18:00:49.475Z,99.90
2023-03-27T18:03:19.547Z,99.90
2023-03-27T18:05:48.531Z,99.90
2023-03-27T18:08:19.745Z,99.90
2023-03-27T18:10:48.722Z,99.90
2023-03-27T18:13:17.287Z,99.90
2023-03-27T18:15:44.538Z,99.90
2023-03-27T18:18:13.715Z,99.90
2023-03-27T18:20:42.872Z,99.90
2023-03-27T18:23:09.596Z,99.90
2023-03-27T18:25:41.866Z,99.90
2023-03-27T18:28:12.455Z,99.90
2023-03-27T18:30:39.768Z,99.90
2023-03-27T18:33:06.576Z,99.90
2023-03-27T18:35:38.713Z,99.90
2023-03-27T18:38:06.679Z,99.90
2023-03-27T18:40:33.405Z,99.90
2023-03-27T18:43:02.686Z,99.90
2023-03-27T18:45:31.926Z,99.90
2023-03-27T18:47:58.724Z,99.90
2023-03-27T18:50:27.909Z,99.90
2023-03-27T18:52:54.611Z,99.90
2023-03-27T18:55:21.359Z,99.90
2023-03-27T18:57:50.623Z,99.90
2023-03-27T19:00:20.279Z,99.90
2023-03-27T19:02:48.622Z,99.90
2023-03-27T19:05:16.260Z,99.90
2023-03-27T19:07:45.835Z,99.90
2023-03-27T19:10:14.007Z,99.90
2023-03-27T19:12:43.370Z,99.90
2023-03-27T19:15:19.770Z,99.90
2023-03-27T19:17:47.165Z,99.90
2023-03-27T19:20:14.121Z,99.90
2023-03-27T19:22:41.004Z,99.90
2023-03-27T19:25:12.239Z,99.90
2023-03-27T19:27:41.412Z,99.90
2023-03-27T19:30:09.607Z,99.90
2023-03-27T19:32:38.573Z,99.90
2023-03-27T19:35:05.969Z,99.90
2023-03-27T19:37:33.429Z,99.90
2023-03-27T19:40:02.263Z,99.90
2023-03-27T19:42:29.638Z,99.90
2023-03-27T19:44:56.575Z,99.90
2023-03-27T19:47:25.836Z,99.90
2023-03-27T19:49:53.596Z,99.90
2023-03-27T19:52:20.469Z,99.90
2023-03-27T19:54:49.944Z,99.90
2023-03-27T19:57:16.769Z,99.90
2023-03-27T19:59:43.578Z,99.90
2023-03-27T20:02:12.264Z,99.90
2023-03-27T20:04:39.283Z,99.90
2023-03-27T20:07:07.556Z,99.90
2023-03-27T20:09:34.663Z,99.90
2023-03-27T20:12:02.089Z,99.90
2023-03-27T20:14:33.602Z,99.90
2023-03-27T20:17:00.290Z,99.90
2023-03-27T20:19:30.630Z,99.90
2023-03-27T20:22:00.578Z,99.90
2023-03-27T20:24:28.805Z,99.90
2023-03-27T20:26:57.083Z,99.90
2023-03-27T20:29:29.068Z,99.90
2023-03-27T20:31:56.033Z,99.90
2023-03-27T20:34:24.053Z,99.90
2023-03-27T20:36:54.834Z,99.90
2023-03-27T20:39:21.617Z,99.90
2023-03-27T20:41:49.024Z,99.90
2023-03-27T20:44:16.344Z,99.90
2023-03-27T20:46:47.934Z,99.90
2023-03-27T20:49:37.533Z,99.90
2023-03-27T20:52:07.895Z,99.90
2023-03-27T20:54:34.712Z,99.90
2023-03-27T20:57:02.781Z,99.90
2023-03-27T20:59:30.618Z,99.90
2023-03-27T21:01:58.148Z,99.90
2023-03-27T21:04:26.190Z,99.90
2023-03-27T21:06:54.895Z,99.90
2023-03-27T21:09:23.307Z,99.90
2023-03-27T21:11:50.527Z,99.90
2023-03-27T21:14:19.757Z,99.90
2023-03-27T21:16:46.449Z,99.90
2023-03-27T21:19:15.902Z,99.90
2023-03-27T21:21:42.681Z,99.90
2023-03-27T21:24:09.515Z,99.90
2023-03-27T21:26:38.811Z,99.90
2023-03-27T21:29:10.668Z,99.90
2023-03-27T21:31:41.227Z,99.90
2023-03-27T21:34:08.622Z,99.90
2023-03-27T21:36:35.540Z,99.90
2023-03-27T21:39:02.348Z,99.90
2023-03-27T21:41:29.229Z,99.90
2023-03-27T21:43:55.954Z,99.90
2023-03-27T21:46:22.737Z,99.90
2023-03-27T21:51:19.717Z,99.90
2023-03-27T21:53:47.060Z,99.90
2023-03-27T21:56:14.086Z,99.90
2023-03-27T21:58:40.800Z,99.90
2023-03-27T22:01:07.887Z,99.90
2023-03-27T22:03:34.903Z,99.90
2023-03-27T22:06:12.449Z,99.90
2023-03-27T22:08:43.545Z,99.90
2023-03-27T22:11:11.704Z,99.90
2023-03-27T22:13:43.204Z,99.90
2023-03-27T22:21:22.224Z,99.90
2023-03-27T22:23:52.288Z,99.90
2023-03-27T22:26:22.983Z,99.90
2023-03-27T22:28:49.807Z,99.90
2023-03-27T22:31:16.562Z,99.90
2023-03-27T22:33:43.331Z,99.90
2023-03-27T22:36:12.635Z,99.90
2023-03-27T22:43:37.483Z,99.90
2023-03-27T22:46:09.883Z,99.90
2023-03-27T22:56:07.424Z,99.90
2023-03-27T22:58:36.341Z,99.90
2023-03-27T23:01:04.587Z,99.90
2023-03-27T23:06:02.521Z,99.90
2023-03-27T23:11:01.975Z,99.90
2023-03-27T23:13:32.928Z,99.90
2023-03-27T23:16:00.462Z,99.90
2023-03-27T23:18:27.388Z,99.90
2023-03-27T23:20:58.505Z,99.90
2023-03-27T23:23:31.163Z,99.90
2023-03-27T23:26:01.576Z,99.90
2023-03-27T23:28:31.864Z,99.90
2023-03-27T23:31:19.865Z,99.90
2023-03-27T23:33:49.010Z,99.90
2023-03-27T23:36:21.681Z,99.90
2023-03-27T23:38:48.607Z,99.90
2023-03-27T23:41:18.493Z,99.90
2023-03-27T23:43:48.344Z,99.90
2023-03-27T23:46:17.747Z,99.90
2023-03-27T23:48:45.550Z,99.90
2023-03-27T23:51:14.647Z,99.90
2023-03-27T23:53:41.513Z,99.90
2023-03-27T23:56:08.862Z,99.90
2023-03-27T23:58:38.372Z,99.90
